Time;durP1;ratioP1;P1;durP2;ratioP2;P2;SDS_P1;SDS_P2;PMS_P1;PMS_P2;Temp;Humidity;BMP_temperature;BMP_pressure;BME280_temperature;BME280_humidity;BME280_pressure;Samples;Min_cycle;Max_cycle;Signal;HPM_P1;HPM_P2
2024/03/17 00:00:21;;;;;;;;;;;24.80;51.40;;;;;;5069863;28;19905;-50
2024/03/17 00:02:47;;;;;;;;;;;24.70;51.30;;;;;;5075641;28;19920;-45
2024/03/17 00:05:13;;;;;;;;;;;24.70;51.30;;;;;;5071220;28;19916;-45
2024/03/17 00:07:39;;;;;;;;;;;24.70;51.40;;;;;;5071346;28;19912;-45
2024/03/17 00:10:07;;;;;;;;;;;24.70;51.40;;;;;;5073838;28;19923;-45
2024/03/17 00:12:36;;;;;;;;;;;24.70;51.40;;;;;;5073487;28;19912;-47
2024/03/17 00:15:02;;;;;;;;;;;24.70;51.40;;;;;;5070836;28;19908;-45
2024/03/17 00:17:28;;;;;;;;;;;24.70;51.30;;;;;;5074670;28;19916;-48
2024/03/17 00:19:53;;;;;;;;;;;24.60;51.30;;;;;;5073639;28;20351;-45
2024/03/17 00:22:19;;;;;;;;;;;24.60;51.20;;;;;;5075205;28;19955;-47
2024/03/17 00:24:45;;;;;;;;;;;24.60;51.20;;;;;;5070905;28;19915;-48
2024/03/17 00:27:11;;;;;;;;;;;24.60;51.10;;;;;;5074962;28;19908;-48
2024/03/17 00:29:37;;;;;;;;;;;24.60;51.10;;;;;;5077080;28;19920;-45
2024/03/17 00:32:04;;;;;;;;;;;24.60;51.20;;;;;;5081663;28;19917;-44
2024/03/17 00:34:30;;;;;;;;;;;24.60;51.20;;;;;;5075892;28;19908;-44
2024/03/17 00:36:55;;;;;;;;;;;24.50;51.20;;;;;;5075017;28;19935;-49
2024/03/17 00:39:22;;;;;;;;;;;24.50;51.10;;;;;;5078889;28;19941;-45
2024/03/17 00:41:48;;;;;;;;;;;24.50;51.20;;;;;;5076134;28;19912;-49
2024/03/17 00:44:15;;;;;;;;;;;24.50;51.00;;;;;;5072062;28;20009;-45
2024/03/17 00:46:42;;;;;;;;;;;24.50;50.90;;;;;;5077233;28;19915;-50
2024/03/17 00:49:09;;;;;;;;;;;24.50;51.10;;;;;;5073996;28;19943;-45
2024/03/17 00:51:35;;;;;;;;;;;24.50;51.00;;;;;;5075570;28;19912;-45
2024/03/17 00:54:00;;;;;;;;;;;24.40;51.00;;;;;;5078881;28;19916;-49
2024/03/17 00:56:27;;;;;;;;;;;24.40;51.00;;;;;;5081946;28;19919;-46
2024/03/17 00:58:53;;;;;;;;;;;24.40;50.90;;;;;;5082249;28;19983;-48
2024/03/17 01:01:20;;;;;;;;;;;24.30;50.90;;;;;;5081024;28;19919;-45
2024/03/17 01:03:46;;;;;;;;;;;24.30;50.80;;;;;;5075923;28;19912;-45
2024/03/17 01:06:13;;;;;;;;;;;24.30;50.80;;;;;;5078216;28;19919;-45
2024/03/17 01:08:39;;;;;;;;;;;24.30;50.80;;;;;;5069215;28;19964;-43
2024/03/17 01:11:08;;;;;;;;;;;24.30;50.70;;;;;;5081069;28;19912;-45
2024/03/17 01:13:37;;;;;;;;;;;24.30;50.70;;;;;;5081799;28;19912;-48
2024/03/17 01:16:04;;;;;;;;;;;24.20;50.70;;;;;;5081234;28;19931;-43
2024/03/17 01:18:30;;;;;;;;;;;24.20;50.60;;;;;;5068265;28;20458;-45
2024/03/17 01:20:56;;;;;;;;;;;24.20;50.60;;;;;;5080383;28;19934;-47
2024/03/17 01:23:23;;;;;;;;;;;24.10;50.60;;;;;;5073708;28;20031;-46
2024/03/17 01:25:49;;;;;;;;;;;24.10;50.60;;;;;;5079150;28;19912;-45
2024/03/17 01:28:15;;;;;;;;;;;24.10;50.60;;;;;;5064241;28;19959;-49
2024/03/17 01:30:42;;;;;;;;;;;24.10;50.60;;;;;;5069480;28;19908;-47
2024/03/17 01:33:09;;;;;;;;;;;24.10;50.50;;;;;;5072899;28;20453;-45
2024/03/17 01:35:37;;;;;;;;;;;24.10;50.50;;;;;;5063904;28;19912;-49
2024/03/17 01:38:04;;;;;;;;;;;24.00;50.50;;;;;;5064069;28;19913;-45
2024/03/17 01:40:30;;;;;;;;;;;24.00;50.60;;;;;;5072252;28;19909;-47
2024/03/17 01:42:58;;;;;;;;;;;24.00;50.60;;;;;;5070401;28;19908;-44
2024/03/17 01:45:33;;;;;;;;;;;24.00;50.60;;;;;;5067024;28;19937;-43
2024/03/17 01:48:00;;;;;;;;;;;24.00;50.60;;;;;;5074699;28;19931;-46
2024/03/17 01:50:36;;;;;;;;;;;23.90;50.50;;;;;;5063514;28;19976;-46
2024/03/17 01:53:06;;;;;;;;;;;23.90;50.50;;;;;;5070841;28;19931;-48
2024/03/17 01:55:32;;;;;;;;;;;23.90;50.60;;;;;;5070173;28;20008;-46
2024/03/17 01:57:59;;;;;;;;;;;23.90;50.50;;;;;;5071901;28;19928;-46
2024/03/17 02:00:26;;;;;;;;;;;23.80;50.50;;;;;;5073455;28;19942;-44
2024/03/17 02:02:52;;;;;;;;;;;23.80;50.50;;;;;;5077302;28;19905;-47
2024/03/17 02:05:19;;;;;;;;;;;23.80;50.60;;;;;;5070883;28;20763;-46
2024/03/17 02:07:46;;;;;;;;;;;23.80;50.60;;;;;;5063202;28;19916;-47
2024/03/17 02:10:13;;;;;;;;;;;23.70;50.60;;;;;;5078596;28;19947;-48
2024/03/17 02:12:39;;;;;;;;;;;23.70;50.60;;;;;;5075522;28;20667;-47
2024/03/17 02:15:06;;;;;;;;;;;23.70;50.60;;;;;;5070754;28;19942;-45
2024/03/17 02:17:32;;;;;;;;;;;23.70;50.60;;;;;;5071201;28;19915;-45
2024/03/17 02:19:59;;;;;;;;;;;23.70;50.60;;;;;;5070686;28;19947;-45
2024/03/17 02:22:27;;;;;;;;;;;23.60;50.60;;;;;;5068640;28;19919;-44
2024/03/17 02:24:54;;;;;;;;;;;23.60;50.60;;;;;;5073134;28;19913;-44
2024/03/17 02:27:20;;;;;;;;;;;23.60;50.60;;;;;;5072203;28;19916;-45
2024/03/17 02:29:46;;;;;;;;;;;23.60;50.60;;;;;;5073420;28;20396;-46
2024/03/17 02:32:13;;;;;;;;;;;23.60;50.60;;;;;;5067333;28;19908;-46
2024/03/17 02:34:39;;;;;;;;;;;23.50;50.60;;;;;;5070120;28;19913;-47
2024/03/17 02:37:07;;;;;;;;;;;23.50;50.60;;;;;;5064015;28;19968;-46
2024/03/17 02:39:34;;;;;;;;;;;23.50;50.60;;;;;;5073696;28;19917;-45
2024/03/17 02:42:06;;;;;;;;;;;23.50;50.70;;;;;;5073216;28;19912;-46
2024/03/17 02:44:33;;;;;;;;;;;23.50;50.70;;;;;;5062903;28;19920;-45
2024/03/17 02:47:00;;;;;;;;;;;23.40;50.70;;;;;;5065576;28;19916;-46
2024/03/17 02:49:43;;;;;;;;;;;23.40;50.70;;;;;;5073635;28;19923;-44
2024/03/17 02:52:10;;;;;;;;;;;23.40;50.70;;;;;;5073170;28;19951;-45
2024/03/17 02:54:37;;;;;;;;;;;23.30;50.70;;;;;;5078501;28;19967;-48
2024/03/17 02:57:04;;;;;;;;;;;23.30;50.70;;;;;;5080086;28;19919;-46
2024/03/17 02:59:31;;;;;;;;;;;23.30;50.70;;;;;;5073735;28;20002;-46
2024/03/17 03:01:58;;;;;;;;;;;23.30;50.70;;;;;;5078696;28;19960;-45
2024/03/17 03:04:24;;;;;;;;;;;23.30;50.70;;;;;;5071240;28;19916;-44
2024/03/17 03:06:51;;;;;;;;;;;23.20;50.70;;;;;;5067223;28;19909;-46
2024/03/17 03:09:31;;;;;;;;;;;23.20;50.80;;;;;;5069812;28;19987;-44
2024/03/17 03:12:04;;;;;;;;;;;23.20;50.80;;;;;;5077125;28;19958;-47
2024/03/17 03:14:30;;;;;;;;;;;23.20;50.80;;;;;;5062130;28;19915;-46
2024/03/17 03:16:56;;;;;;;;;;;23.20;50.80;;;;;;5076529;28;19912;-48
2024/03/17 03:19:23;;;;;;;;;;;23.10;50.70;;;;;;5072619;28;19912;-49
2024/03/17 03:21:49;;;;;;;;;;;23.10;50.80;;;;;;5076045;28;20671;-43
2024/03/17 03:24:16;;;;;;;;;;;23.10;50.80;;;;;;5077522;28;19912;-46
2024/03/17 03:26:43;;;;;;;;;;;23.10;50.90;;;;;;5081068;28;19983;-45
2024/03/17 03:29:10;;;;;;;;;;;23.00;50.80;;;;;;5076665;28;19921;-45
2024/03/17 03:31:39;;;;;;;;;;;23.00;50.90;;;;;;5083386;28;19935;-44
2024/03/17 03:34:07;;;;;;;;;;;23.00;50.90;;;;;;5082714;28;19999;-43
2024/03/17 03:36:34;;;;;;;;;;;22.90;50.90;;;;;;5087398;28;19917;-44
2024/03/17 03:39:00;;;;;;;;;;;22.90;50.90;;;;;;5079841;28;19924;-45
2024/03/17 03:41:26;;;;;;;;;;;22.90;50.90;;;;;;5080006;28;19919;-46
2024/03/17 03:43:53;;;;;;;;;;;22.90;51.10;;;;;;5079753;28;19963;-45
2024/03/17 03:46:20;;;;;;;;;;;23.00;51.40;;;;;;5080390;28;19920;-47
2024/03/17 03:48:46;;;;;;;;;;;22.90;51.40;;;;;;5078754;28;19916;-45
2024/03/17 03:51:15;;;;;;;;;;;22.90;51.40;;;;;;5077855;28;19975;-46
2024/03/17 03:53:42;;;;;;;;;;;22.90;51.40;;;;;;5078474;28;19913;-44
2024/03/17 03:56:10;;;;;;;;;;;22.90;51.40;;;;;;5079531;28;19912;-44
2024/03/17 03:58:40;;;;;;;;;;;22.90;51.40;;;;;;5064963;28;19913;-48
2024/03/17 04:01:06;;;;;;;;;;;22.90;51.40;;;;;;5066332;28;19909;-46
2024/03/17 04:03:36;;;;;;;;;;;22.80;51.30;;;;;;5071582;28;19908;-46
2024/03/17 04:06:06;;;;;;;;;;;22.90;51.60;;;;;;5065510;28;19912;-46
2024/03/17 04:08:33;;;;;;;;;;;22.90;51.80;;;;;;5066022;28;19916;-47
2024/03/17 04:10:59;;;;;;;;;;;22.90;51.80;;;;;;5072335;28;19952;-46
2024/03/17 04:13:29;;;;;;;;;;;22.90;51.80;;;;;;5072263;28;20003;-44
2024/03/17 04:15:58;;;;;;;;;;;22.90;51.70;;;;;;5072755;28;20279;-44
2024/03/17 04:18:25;;;;;;;;;;;22.90;51.70;;;;;;5073803;28;19913;-43
2024/03/17 04:20:52;;;;;;;;;;;22.80;51.70;;;;;;5068260;28;19908;-46
2024/03/17 04:23:19;;;;;;;;;;;22.80;51.60;;;;;;5073988;28;19947;-46
2024/03/17 04:25:45;;;;;;;;;;;22.80;51.60;;;;;;5068990;28;19913;-44
2024/03/17 04:28:11;;;;;;;;;;;22.80;51.60;;;;;;5065727;28;19993;-47
2024/03/17 04:30:37;;;;;;;;;;;22.80;51.90;;;;;;5065922;28;19916;-47
2024/03/17 04:33:03;;;;;;;;;;;22.80;52.00;;;;;;5072627;28;19932;-45
2024/03/17 04:35:29;;;;;;;;;;;22.80;52.00;;;;;;5072470;28;19908;-48
2024/03/17 04:37:57;;;;;;;;;;;22.80;52.00;;;;;;5080539;28;19943;-48
2024/03/17 04:40:23;;;;;;;;;;;22.80;51.90;;;;;;5081628;28;20003;-45
2024/03/17 04:42:49;;;;;;;;;;;22.80;51.90;;;;;;5076575;28;19912;-48
2024/03/17 04:45:15;;;;;;;;;;;22.80;51.90;;;;;;5071571;28;19916;-47
2024/03/17 04:47:40;;;;;;;;;;;22.80;51.90;;;;;;5072288;28;19983;-47
2024/03/17 04:50:06;;;;;;;;;;;22.70;51.80;;;;;;5071512;28;19991;-48
2024/03/17 04:52:32;;;;;;;;;;;22.70;51.90;;;;;;5071640;28;19930;-49
2024/03/17 04:54:58;;;;;;;;;;;22.80;52.20;;;;;;5074275;28;19986;-47
2024/03/17 04:57:24;;;;;;;;;;;22.80;52.20;;;;;;5081076;28;19934;-49
2024/03/17 04:59:50;;;;;;;;;;;22.80;52.10;;;;;;5074863;28;19908;-48
2024/03/17 05:02:16;;;;;;;;;;;22.80;52.10;;;;;;5069698;28;19927;-49
2024/03/17 05:04:42;;;;;;;;;;;22.80;52.10;;;;;;5065064;28;19908;-48
2024/03/17 05:07:09;;;;;;;;;;;22.70;52.00;;;;;;5078565;28;20289;-47
2024/03/17 05:09:35;;;;;;;;;;;22.70;52.00;;;;;;5077390;28;19932;-48
2024/03/17 05:12:01;;;;;;;;;;;22.70;52.00;;;;;;5071831;28;20364;-46
2024/03/17 05:14:27;;;;;;;;;;;22.70;52.10;;;;;;5076825;28;19934;-48
2024/03/17 05:16:53;;;;;;;;;;;22.80;52.30;;;;;;5063118;28;19944;-47
2024/03/17 05:19:19;;;;;;;;;;;22.80;52.30;;;;;;5072124;28;19938;-45
2024/03/17 05:21:45;;;;;;;;;;;22.80;52.30;;;;;;5077084;28;19980;-47
2024/03/17 05:24:12;;;;;;;;;;;22.80;52.20;;;;;;5074508;28;19916;-47
2024/03/17 05:26:38;;;;;;;;;;;22.70;52.10;;;;;;5068279;28;19919;-45
2024/03/17 05:29:04;;;;;;;;;;;22.70;52.10;;;;;;5071579;28;19924;-44
2024/03/17 05:31:31;;;;;;;;;;;22.70;52.10;;;;;;5070305;28;19916;-44
2024/03/17 05:33:57;;;;;;;;;;;22.70;52.10;;;;;;5070459;28;20475;-45
2024/03/17 05:36:23;;;;;;;;;;;22.70;52.30;;;;;;5071210;28;19913;-48
2024/03/17 05:38:49;;;;;;;;;;;22.70;52.40;;;;;;5070209;28;20714;-49
2024/03/17 05:41:14;;;;;;;;;;;22.70;52.30;;;;;;5071834;28;19913;-45
2024/03/17 05:43:40;;;;;;;;;;;22.70;52.30;;;;;;5075283;28;19927;-45
2024/03/17 05:46:10;;;;;;;;;;;22.70;52.30;;;;;;5072622;28;19912;-44
2024/03/17 05:48:39;;;;;;;;;;;22.70;52.30;;;;;;5074569;28;19916;-47
2024/03/17 05:51:09;;;;;;;;;;;22.70;52.30;;;;;;5079779;28;19924;-49
2024/03/17 05:53:35;;;;;;;;;;;22.70;52.20;;;;;;5081379;28;19912;-46
2024/03/17 05:56:01;;;;;;;;;;;22.60;52.20;;;;;;5079611;28;19913;-47
2024/03/17 05:58:27;;;;;;;;;;;22.70;52.40;;;;;;5077664;28;19909;-44
2024/03/17 06:00:53;;;;;;;;;;;22.70;52.40;;;;;;5071154;28;19920;-45
2024/03/17 06:03:18;;;;;;;;;;;22.70;52.90;;;;;;5067509;28;19912;-45
2024/03/17 06:05:45;;;;;;;;;;;22.70;52.40;;;;;;5076206;28;19912;-45
2024/03/17 06:08:11;;;;;;;;;;;22.70;52.30;;;;;;5071150;28;20005;-49
2024/03/17 06:10:38;;;;;;;;;;;22.70;52.30;;;;;;5068538;28;19912;-44
2024/03/17 06:13:04;;;;;;;;;;;22.60;52.30;;;;;;5065518;28;19942;-44
2024/03/17 06:15:30;;;;;;;;;;;22.60;52.30;;;;;;5062935;28;20639;-45
2024/03/17 06:17:56;;;;;;;;;;;22.60;52.40;;;;;;5066292;28;19912;-45
2024/03/17 06:20:26;;;;;;;;;;;22.70;52.40;;;;;;5073085;28;19919;-48
2024/03/17 06:22:56;;;;;;;;;;;22.70;52.40;;;;;;5073625;28;19912;-45
2024/03/17 06:25:25;;;;;;;;;;;22.70;52.40;;;;;;5073901;28;19919;-44
2024/03/17 06:27:51;;;;;;;;;;;22.70;52.40;;;;;;5075120;28;19920;-45
2024/03/17 06:30:17;;;;;;;;;;;22.60;52.30;;;;;;5068694;28;19940;-47
2024/03/17 06:32:46;;;;;;;;;;;22.60;52.30;;;;;;5068898;28;20483;-46
2024/03/17 06:35:15;;;;;;;;;;;22.60;52.30;;;;;;5073296;28;19916;-49
2024/03/17 06:37:41;;;;;;;;;;;22.60;52.40;;;;;;5074213;28;19927;-45
2024/03/17 06:40:11;;;;;;;;;;;22.70;52.50;;;;;;5070310;28;19936;-48
2024/03/17 06:42:38;;;;;;;;;;;22.70;52.40;;;;;;5071622;28;19934;-45
2024/03/17 06:45:04;;;;;;;;;;;22.60;52.40;;;;;;5068922;28;19995;-48
2024/03/17 06:47:30;;;;;;;;;;;22.60;52.30;;;;;;5072955;28;20019;-47
2024/03/17 06:49:56;;;;;;;;;;;22.60;52.30;;;;;;5069393;28;20348;-44
2024/03/17 06:52:22;;;;;;;;;;;22.60;52.30;;;;;;5070029;28;19919;-45
2024/03/17 06:54:50;;;;;;;;;;;22.60;52.30;;;;;;5072701;28;19933;-44
2024/03/17 06:57:16;;;;;;;;;;;22.60;52.50;;;;;;5075475;28;19916;-49
2024/03/17 06:59:43;;;;;;;;;;;22.60;52.50;;;;;;5072855;28;19912;-47
2024/03/17 07:02:08;;;;;;;;;;;22.60;52.50;;;;;;5075366;28;20621;-47
2024/03/17 07:04:36;;;;;;;;;;;22.60;52.40;;;;;;5080022;28;19919;-47
2024/03/17 07:07:01;;;;;;;;;;;22.60;52.40;;;;;;5074317;28;19934;-47
2024/03/17 07:09:27;;;;;;;;;;;22.60;52.40;;;;;;5077797;28;19924;-45
2024/03/17 07:11:53;;;;;;;;;;;22.60;52.40;;;;;;5082508;28;19912;-45
2024/03/17 07:14:19;;;;;;;;;;;22.50;52.30;;;;;;5075415;28;19912;-45
2024/03/17 07:16:45;;;;;;;;;;;22.50;52.40;;;;;;5073784;28;19919;-45
2024/03/17 07:19:11;;;;;;;;;;;22.60;52.60;;;;;;5070992;28;20543;-46
2024/03/17 07:21:37;;;;;;;;;;;22.60;52.50;;;;;;5081426;28;19916;-46
2024/03/17 07:24:04;;;;;;;;;;;22.60;52.50;;;;;;5076319;28;19920;-49
2024/03/17 07:26:30;;;;;;;;;;;22.60;52.50;;;;;;5076258;28;19915;-47
2024/03/17 07:28:56;;;;;;;;;;;22.60;53.00;;;;;;5076982;28;19924;-48
2024/03/17 07:31:22;;;;;;;;;;;22.50;52.40;;;;;;5071678;28;19909;-52
2024/03/17 07:33:49;;;;;;;;;;;22.50;52.40;;;;;;5072151;28;19908;-48
2024/03/17 07:36:14;;;;;;;;;;;22.50;52.50;;;;;;5076017;28;20026;-50
2024/03/17 07:38:40;;;;;;;;;;;22.60;52.60;;;;;;5078497;28;19923;-48
2024/03/17 07:41:06;;;;;;;;;;;22.60;52.60;;;;;;5079564;28;19912;-48
2024/03/17 07:43:33;;;;;;;;;;;22.60;52.50;;;;;;5073480;28;19917;-50
2024/03/17 07:46:03;;;;;;;;;;;22.60;52.50;;;;;;5067915;28;19912;-47
2024/03/17 07:48:29;;;;;;;;;;;22.50;52.40;;;;;;5077922;28;19920;-49
2024/03/17 07:50:56;;;;;;;;;;;22.50;52.40;;;;;;5070046;28;19919;-50
2024/03/17 07:53:22;;;;;;;;;;;22.50;52.50;;;;;;5080422;28;19913;-50
2024/03/17 07:55:56;;;;;;;;;;;22.50;52.60;;;;;;5075819;28;19913;-50
2024/03/17 07:58:22;;;;;;;;;;;22.60;52.60;;;;;;5075082;28;19909;-49
2024/03/17 08:00:48;;;;;;;;;;;22.60;52.60;;;;;;5079813;28;19920;-48
2024/03/17 08:03:13;;;;;;;;;;;22.50;52.50;;;;;;5071009;28;19980;-47
2024/03/17 08:05:39;;;;;;;;;;;22.50;52.50;;;;;;5073290;28;19912;-48
2024/03/17 08:08:07;;;;;;;;;;;22.50;52.50;;;;;;5076610;28;19916;-49
2024/03/17 08:10:37;;;;;;;;;;;22.50;52.40;;;;;;5068834;28;19982;-48
2024/03/17 08:13:05;;;;;;;;;;;22.50;52.50;;;;;;5075733;28;19908;-49
2024/03/17 08:15:31;;;;;;;;;;;22.60;52.60;;;;;;5069714;28;20408;-45
2024/03/17 08:17:56;;;;;;;;;;;22.50;53.10;;;;;;5075658;28;19904;-46
2024/03/17 08:20:23;;;;;;;;;;;22.50;52.50;;;;;;5076382;28;19919;-48
2024/03/17 08:22:49;;;;;;;;;;;22.50;52.50;;;;;;5083115;28;20006;-46
2024/03/17 08:25:14;;;;;;;;;;;22.50;52.50;;;;;;5074225;28;19996;-46
2024/03/17 08:27:40;;;;;;;;;;;22.50;52.50;;;;;;5065091;28;19913;-47
2024/03/17 08:30:09;;;;;;;;;;;22.50;52.50;;;;;;5072414;28;19920;-46
2024/03/17 08:32:35;;;;;;;;;;;22.50;52.60;;;;;;5078513;28;19920;-47
2024/03/17 08:35:01;;;;;;;;;;;22.50;52.60;;;;;;5075075;28;19916;-48
2024/03/17 08:37:27;;;;;;;;;;;22.50;52.60;;;;;;5071920;28;19962;-49
2024/03/17 08:39:53;;;;;;;;;;;22.50;52.60;;;;;;5071217;28;19947;-49
2024/03/17 08:42:19;;;;;;;;;;;22.50;52.60;;;;;;5075121;28;19916;-48
2024/03/17 08:44:47;;;;;;;;;;;22.50;52.60;;;;;;5070353;28;19939;-49
2024/03/17 08:47:13;;;;;;;;;;;22.40;52.50;;;;;;5066514;28;19913;-48
2024/03/17 08:49:39;;;;;;;;;;;22.50;52.60;;;;;;5082478;28;19920;-44
2024/03/17 08:52:05;;;;;;;;;;;22.50;53.30;;;;;;5074885;28;19995;-47
2024/03/17 08:54:31;;;;;;;;;;;22.50;52.60;;;;;;5082134;28;19951;-50
2024/03/17 08:56:57;;;;;;;;;;;22.50;52.60;;;;;;5074933;28;19913;-45
2024/03/17 08:59:23;;;;;;;;;;;22.50;52.60;;;;;;5078557;28;20386;-48
2024/03/17 09:01:48;;;;;;;;;;;22.40;52.60;;;;;;5063762;28;19973;-45
2024/03/17 09:04:14;;;;;;;;;;;22.40;52.50;;;;;;5071539;28;19930;-47
2024/03/17 09:06:40;;;;;;;;;;;22.40;52.70;;;;;;5068976;28;19919;-47
2024/03/17 09:09:07;;;;;;;;;;;22.50;53.30;;;;;;5073656;28;19920;-47
2024/03/17 09:11:33;;;;;;;;;;;22.50;52.70;;;;;;5074901;28;19919;-47
2024/03/17 09:13:59;;;;;;;;;;;22.50;52.60;;;;;;5071253;28;19919;-53
2024/03/17 09:16:25;;;;;;;;;;;22.50;52.60;;;;;;5078955;28;20011;-46
2024/03/17 09:18:51;;;;;;;;;;;22.40;52.60;;;;;;5078678;28;19919;-45
2024/03/17 09:21:17;;;;;;;;;;;22.40;52.60;;;;;;5074899;28;19951;-47
2024/03/17 09:23:43;;;;;;;;;;;22.40;52.60;;;;;;5077014;28;19912;-47
2024/03/17 09:26:09;;;;;;;;;;;22.40;52.70;;;;;;5064903;28;19972;-50
2024/03/17 09:28:36;;;;;;;;;;;22.50;52.70;;;;;;5075618;28;20247;-47
2024/03/17 09:31:02;;;;;;;;;;;22.50;52.70;;;;;;5074891;28;19980;-48
2024/03/17 09:33:29;;;;;;;;;;;22.50;52.60;;;;;;5067446;28;20007;-49
2024/03/17 09:35:59;;;;;;;;;;;22.40;52.60;;;;;;5071886;28;19915;-47
2024/03/17 09:38:24;;;;;;;;;;;22.40;52.60;;;;;;5072194;28;19980;-47
2024/03/17 09:40:54;;;;;;;;;;;22.40;52.60;;;;;;5070525;28;19915;-46
2024/03/17 09:43:21;;;;;;;;;;;22.50;52.70;;;;;;5063922;28;19956;-47
2024/03/17 09:45:47;;;;;;;;;;;22.50;52.70;;;;;;5071460;28;19935;-49
2024/03/17 09:48:19;;;;;;;;;;;22.50;52.70;;;;;;5070303;28;19920;-47
2024/03/17 09:50:52;;;;;;;;;;;22.50;52.60;;;;;;5069628;28;19912;-50
2024/03/17 09:53:21;;;;;;;;;;;22.40;52.60;;;;;;5072223;28;19939;-46
2024/03/17 09:55:47;;;;;;;;;;;22.40;52.60;;;;;;5063478;28;19915;-47
2024/03/17 09:58:19;;;;;;;;;;;22.40;52.60;;;;;;5073491;28;20607;-46
2024/03/17 10:00:46;;;;;;;;;;;22.40;52.70;;;;;;5072802;28;19979;-50
2024/03/17 10:03:12;;;;;;;;;;;22.40;52.70;;;;;;5080544;28;19938;-48
2024/03/17 10:05:38;;;;;;;;;;;22.50;52.80;;;;;;5071175;28;19912;-46
2024/03/17 10:08:04;;;;;;;;;;;22.40;52.70;;;;;;5071464;28;20033;-46
2024/03/17 10:10:30;;;;;;;;;;;22.40;52.70;;;;;;5067022;28;19912;-48
2024/03/17 10:12:56;;;;;;;;;;;22.40;52.70;;;;;;5074933;28;20005;-46
2024/03/17 10:15:23;;;;;;;;;;;22.40;52.70;;;;;;5063677;28;19913;-49
2024/03/17 10:17:49;;;;;;;;;;;22.40;52.80;;;;;;5063600;28;20333;-49
2024/03/17 10:20:16;;;;;;;;;;;22.40;52.80;;;;;;5064670;28;19912;-48
2024/03/17 10:22:58;;;;;;;;;;;22.50;52.80;;;;;;5069920;28;19909;-49
2024/03/17 10:25:24;;;;;;;;;;;22.40;52.80;;;;;;5075116;28;19964;-49
2024/03/17 10:27:52;;;;;;;;;;;22.40;52.80;;;;;;5074424;28;19913;-46
2024/03/17 10:30:19;;;;;;;;;;;22.40;52.80;;;;;;5072082;28;19954;-47
2024/03/17 10:32:46;;;;;;;;;;;22.40;52.80;;;;;;5066297;28;19912;-46
2024/03/17 10:35:30;;;;;;;;;;;22.40;52.80;;;;;;5080252;28;20268;-47
2024/03/17 10:37:57;;;;;;;;;;;22.40;52.80;;;;;;5084014;28;19908;-48
2024/03/17 10:40:24;;;;;;;;;;;22.40;52.80;;;;;;5081898;28;19913;-50
2024/03/17 10:42:49;;;;;;;;;;;22.40;52.80;;;;;;5065321;28;19913;-48
2024/03/17 10:45:15;;;;;;;;;;;22.40;52.80;;;;;;5067842;28;19924;-45
2024/03/17 10:47:42;;;;;;;;;;;22.40;52.80;;;;;;5079501;28;20003;-47
2024/03/17 10:50:09;;;;;;;;;;;22.40;52.90;;;;;;5068614;28;19988;-46
2024/03/17 10:52:35;;;;;;;;;;;22.40;52.90;;;;;;5081328;28;19912;-46
2024/03/17 10:55:02;;;;;;;;;;;22.40;52.80;;;;;;5078508;28;20055;-46
2024/03/17 10:57:30;;;;;;;;;;;22.50;52.90;;;;;;5067651;28;19913;-46
2024/03/17 10:59:56;;;;;;;;;;;22.40;52.80;;;;;;5072627;28;20004;-48
2024/03/17 11:02:23;;;;;;;;;;;22.40;52.80;;;;;;5073525;28;19944;-46
2024/03/17 11:04:52;;;;;;;;;;;22.40;52.80;;;;;;5067047;28;19912;-46
2024/03/17 11:07:19;;;;;;;;;;;22.40;52.90;;;;;;5083084;28;20022;-46
2024/03/17 11:09:47;;;;;;;;;;;22.40;52.90;;;;;;5076770;28;19925;-45
2024/03/17 11:12:31;;;;;;;;;;;22.40;52.90;;;;;;5083681;28;20336;-47
2024/03/17 11:15:29;;;;;;;;;;;22.40;52.80;;;;;;5070245;28;20006;-47
2024/03/17 11:18:17;;;;;;;;;;;22.40;52.80;;;;;;5062157;28;19919;-45
2024/03/17 11:20:55;;;;;;;;;;;22.40;52.80;;;;;;5085546;28;19911;-47
2024/03/17 11:23:28;;;;;;;;;;;22.40;52.80;;;;;;5075004;28;19912;-46
2024/03/17 11:25:54;;;;;;;;;;;22.40;52.90;;;;;;5068714;28;19970;-47
2024/03/17 11:28:39;;;;;;;;;;;22.40;52.90;;;;;;5074694;28;19979;-49
2024/03/17 11:31:08;;;;;;;;;;;22.40;52.90;;;;;;5066241;28;19913;-46
2024/03/17 11:33:43;;;;;;;;;;;22.40;52.80;;;;;;5069121;28;20454;-47
2024/03/17 11:36:24;;;;;;;;;;;22.40;52.80;;;;;;5074533;28;19908;-48
2024/03/17 11:38:51;;;;;;;;;;;22.40;52.90;;;;;;5078269;28;19956;-46
2024/03/17 11:41:35;;;;;;;;;;;22.30;52.90;;;;;;5076643;28;20130;-49
2024/03/17 11:44:20;;;;;;;;;;;22.40;52.90;;;;;;5067546;28;19920;-51
2024/03/17 11:47:06;;;;;;;;;;;22.40;52.90;;;;;;5073606;28;19971;-47
2024/03/17 11:49:38;;;;;;;;;;;22.40;52.90;;;;;;5070430;28;19923;-49
2024/03/17 11:52:04;;;;;;;;;;;22.40;52.90;;;;;;5078823;28;20122;-47
2024/03/17 11:54:31;;;;;;;;;;;22.40;52.80;;;;;;5072557;28;19916;-49
2024/03/17 11:57:03;;;;;;;;;;;22.40;52.90;;;;;;5072372;28;19967;-48
2024/03/17 11:59:29;;;;;;;;;;;22.40;53.00;;;;;;5073991;28;19913;-47
2024/03/17 12:01:55;;;;;;;;;;;22.40;52.90;;;;;;5066579;28;19905;-49
2024/03/17 12:04:21;;;;;;;;;;;22.40;52.90;;;;;;5067770;28;20477;-48
2024/03/17 12:06:56;;;;;;;;;;;22.40;52.90;;;;;;5065767;28;20403;-48
2024/03/17 12:09:22;;;;;;;;;;;22.40;52.90;;;;;;5073539;28;19921;-48
2024/03/17 12:11:49;;;;;;;;;;;22.40;52.90;;;;;;5071875;28;20004;-48
2024/03/17 12:14:21;;;;;;;;;;;22.40;52.90;;;;;;5074802;28;19908;-48
2024/03/17 12:16:54;;;;;;;;;;;22.40;53.00;;;;;;5067984;28;19915;-50
2024/03/17 12:19:20;;;;;;;;;;;22.40;53.00;;;;;;5073486;28;19904;-48
2024/03/17 12:21:50;;;;;;;;;;;22.50;53.00;;;;;;5067451;28;19948;-46
2024/03/17 12:24:19;;;;;;;;;;;22.50;53.00;;;;;;5074214;28;19909;-50
2024/03/17 12:26:45;;;;;;;;;;;22.40;53.00;;;;;;5075243;28;19918;-48
2024/03/17 12:29:32;;;;;;;;;;;22.40;53.00;;;;;;5075108;28;19913;-52
2024/03/17 12:32:03;;;;;;;;;;;22.40;53.10;;;;;;5074854;28;20670;-51
2024/03/17 12:34:30;;;;;;;;;;;22.40;53.10;;;;;;5075887;28;19934;-52
2024/03/17 12:36:56;;;;;;;;;;;22.50;53.10;;;;;;5082733;28;19953;-47
2024/03/17 12:39:23;;;;;;;;;;;22.50;53.70;;;;;;5080270;28;19908;-50
2024/03/17 12:42:02;;;;;;;;;;;22.50;53.10;;;;;;5072547;28;19915;-50
2024/03/17 12:44:28;;;;;;;;;;;22.40;53.10;;;;;;5079158;28;20396;-48
2024/03/17 12:46:57;;;;;;;;;;;22.40;53.00;;;;;;5071465;28;19916;-48
2024/03/17 12:49:26;;;;;;;;;;;22.40;53.10;;;;;;5082494;28;19958;-48
2024/03/17 12:51:52;;;;;;;;;;;22.40;53.20;;;;;;5082329;28;19913;-48
2024/03/17 12:54:22;;;;;;;;;;;22.50;53.20;;;;;;5079036;28;19923;-50
2024/03/17 13:02:23;;;;;;;;;;;22.40;53.10;;;;;;5082852;28;20010;-45
2024/03/17 13:05:05;;;;;;;;;;;22.40;53.10;;;;;;5086293;28;19915;-49
2024/03/17 13:07:31;;;;;;;;;;;22.40;53.20;;;;;;5085789;28;19920;-51
2024/03/17 13:09:56;;;;;;;;;;;22.50;53.30;;;;;;5088130;28;20337;-52
2024/03/17 13:12:22;;;;;;;;;;;22.50;53.30;;;;;;5089225;28;19916;-50
2024/03/17 13:14:48;;;;;;;;;;;22.50;53.20;;;;;;5085919;28;19913;-48
2024/03/17 13:17:16;;;;;;;;;;;22.50;53.20;;;;;;5086561;28;19924;-50
2024/03/17 13:19:42;;;;;;;;;;;22.50;53.20;;;;;;5089508;28;19912;-51
2024/03/17 13:22:08;;;;;;;;;;;22.50;53.20;;;;;;5084428;28;19955;-50
2024/03/17 13:24:34;;;;;;;;;;;22.40;53.20;;;;;;5091581;28;19951;-46
2024/03/17 13:27:05;;;;;;;;;;;22.50;53.30;;;;;;5090835;28;19915;-51
2024/03/17 13:29:33;;;;;;;;;;;22.50;53.30;;;;;;5094980;28;19931;-51
2024/03/17 13:31:58;;;;;;;;;;;22.50;53.30;;;;;;5083843;28;19912;-50
2024/03/17 13:34:25;;;;;;;;;;;22.50;53.30;;;;;;5077461;28;19975;-49
2024/03/17 13:36:54;;;;;;;;;;;22.50;53.30;;;;;;5081913;28;19943;-49
2024/03/17 13:39:24;;;;;;;;;;;22.50;53.30;;;;;;5074446;28;20000;-47
2024/03/17 13:41:52;;;;;;;;;;;22.50;53.20;;;;;;5081493;28;19916;-48
2024/03/17 13:44:18;;;;;;;;;;;22.50;53.30;;;;;;5080441;28;19959;-50
2024/03/17 13:46:44;;;;;;;;;;;22.50;53.30;;;;;;5080514;28;19918;-47
2024/03/17 13:49:10;;;;;;;;;;;22.60;53.40;;;;;;5078164;28;19927;-49
2024/03/17 13:51:36;;;;;;;;;;;22.60;53.40;;;;;;5080618;28;19920;-51
2024/03/17 13:54:02;;;;;;;;;;;22.60;53.30;;;;;;5079505;28;19909;-52
2024/03/17 13:56:28;;;;;;;;;;;22.60;53.30;;;;;;5072997;28;19912;-49
2024/03/17 13:58:54;;;;;;;;;;;22.50;53.20;;;;;;5080383;28;19912;-50
2024/03/17 14:01:20;;;;;;;;;;;22.50;53.20;;;;;;5071922;28;19923;-48
2024/03/17 14:03:46;;;;;;;;;;;22.60;53.40;;;;;;5076551;28;19909;-46
2024/03/17 14:06:12;;;;;;;;;;;22.60;53.30;;;;;;5072732;28;19909;-48
2024/03/17 14:08:38;;;;;;;;;;;22.60;53.30;;;;;;5080431;28;19916;-48
2024/03/17 14:11:04;;;;;;;;;;;22.60;53.30;;;;;;5071401;28;20162;-51
2024/03/17 14:13:30;;;;;;;;;;;22.60;53.30;;;;;;5073000;28;19913;-46
2024/03/17 14:15:56;;;;;;;;;;;22.60;53.30;;;;;;5080441;28;19916;-45
2024/03/17 14:18:22;;;;;;;;;;;22.60;53.20;;;;;;5071366;28;20730;-48
2024/03/17 14:20:48;;;;;;;;;;;22.60;53.20;;;;;;5072165;28;19913;-46
2024/03/17 14:23:13;;;;;;;;;;;22.60;53.20;;;;;;5076582;28;19916;-50